Time;durP1;ratioP1;P1;durP2;ratioP2;P2;SDS_P1;SDS_P2;PMS_P1;PMS_P2;Temp;Humidity;BMP_temperature;BMP_pressure;BME280_temperature;BME280_humidity;BME280_pressure;Samples;Min_cycle;Max_cycle;Signal;HPM_P1;HPM_P2
2023/08/20 00:08:27;;;;;;;14.75;6.55;;;;;;;25.97;100.00;100616.47;20980571;28;20128;-74
2023/08/20 00:18:32;;;;;;;17.08;6.82;;;;;;;25.86;100.00;100616.16;20984764;28;20098;-74
2023/08/20 00:28:54;;;;;;;14.57;6.55;;;;;;;25.75;100.00;100610.38;20914043;28;20110;-74
2023/08/20 00:39:19;;;;;;;11.48;6.88;;;;;;;25.54;100.00;100606.84;20896155;28;20056;-74
2023/08/20 00:49:42;;;;;;;13.27;6.85;;;;;;;25.46;100.00;100602.78;20880793;28;20053;-75
2023/08/20 00:59:49;;;;;;;15.68;6.53;;;;;;;25.41;100.00;100597.59;20892201;28;20048;-74
2023/08/20 01:10:31;;;;;;;21.13;7.07;;;;;;;25.33;100.00;100599.81;20889757;28;20143;-74
2023/08/20 01:21:00;;;;;;;17.50;9.02;;;;;;;25.28;100.00;100583.78;20880677;28;20709;-73
2023/08/20 01:31:27;;;;;;;16.23;7.45;;;;;;;25.11;100.00;100582.84;20945306;28;20051;-73
2023/08/20 01:41:50;;;;;;;16.58;7.88;;;;;;;24.99;100.00;100577.09;20943106;28;20086;-73
2023/08/20 01:51:55;;;;;;;16.13;7.75;;;;;;;24.98;100.00;100578.03;20953699;28;20493;-73
2023/08/20 02:02:17;;;;;;;13.50;6.88;;;;;;;24.83;100.00;100577.81;20941548;28;20548;-71
2023/08/20 02:12:42;;;;;;;16.45;8.80;;;;;;;24.82;100.00;100578.75;20964791;28;20049;-73
2023/08/20 02:23:05;;;;;;;21.77;7.82;;;;;;;24.74;100.00;100581.84;20948574;28;20463;-73
2023/08/20 02:33:29;;;;;;;12.10;7.05;;;;;;;24.58;100.00;100589.75;20963393;28;20579;-72
2023/08/20 02:43:52;;;;;;;15.02;6.97;;;;;;;24.57;100.00;100582.59;20960374;28;20270;-73
2023/08/20 02:54:17;;;;;;;13.02;7.22;;;;;;;24.50;100.00;100583.81;20956799;28;20048;-73
2023/08/20 03:04:40;;;;;;;15.15;7.38;;;;;;;24.38;100.00;100588.88;20982461;28;20587;-72
2023/08/20 03:15:04;;;;;;;15.52;6.72;;;;;;;24.39;100.00;100602.31;20984986;28;20044;-72
2023/08/20 03:25:27;;;;;;;14.73;6.30;;;;;;;24.40;100.00;100597.78;20971484;28;20048;-72
2023/08/20 03:35:51;;;;;;;14.25;6.18;;;;;;;24.47;100.00;100593.88;20966250;28;20098;-73
2023/08/20 03:46:14;;;;;;;14.73;5.88;;;;;;;24.58;100.00;100599.66;20955073;28;20048;-73
2023/08/20 03:56:20;;;;;;;10.77;5.70;;;;;;;24.68;100.00;100595.59;20964933;28;20036;-73
2023/08/20 04:06:43;;;;;;;11.40;5.60;;;;;;;25.01;100.00;100599.47;20987713;28;20045;-73
2023/08/20 04:17:08;;;;;;;10.48;4.45;;;;;;;25.26;100.00;100593.81;20954623;28;20845;-73
2023/08/20 04:27:31;;;;;;;13.48;4.40;;;;;;;25.74;100.00;100595.97;20952593;28;20057;-72
2023/08/20 04:37:56;;;;;;;7.75;4.10;;;;;;;26.15;100.00;100591.19;20951946;28;20072;-73
2023/08/20 04:48:18;;;;;;;10.05;3.72;;;;;;;26.69;100.00;100593.81;20949671;28;20076;-73
2023/08/20 04:58:43;;;;;;;12.73;4.30;;;;;;;27.51;100.00;100589.25;20947995;28;20052;-73
2023/08/20 05:09:06;;;;;;;9.30;3.38;;;;;;;28.33;100.00;100589.88;20966454;28;20048;-73
2023/08/20 05:19:30;;;;;;;8.10;3.03;;;;;;;29.31;100.00;100583.63;20945530;28;20056;-72
2023/08/20 05:29:53;;;;;;;10.98;3.20;;;;;;;30.28;100.00;100570.78;20944826;28;20055;-73
2023/08/20 05:40:18;;;;;;;9.35;3.00;;;;;;;31.34;100.00;100575.06;20927294;28;20056;-73
2023/08/20 05:50:41;;;;;;;6.80;2.45;;;;;;;32.15;89.53;100589.00;20948892;28;20135;-73
2023/08/20 06:01:05;;;;;;;8.55;3.08;;;;;;;32.98;79.90;100595.19;20963363;28;20049;-74
2023/08/20 06:11:28;;;;;;;6.15;2.80;;;;;;;33.61;70.11;100600.00;20962506;28;20147;-73
2023/08/20 06:21:51;;;;;;;6.45;2.80;;;;;;;33.97;64.48;100599.72;20974500;28;20057;-73
2023/08/20 06:32:14;;;;;;;9.57;3.17;;;;;;;34.22;60.42;100603.13;20933005;28;20033;-74
2023/08/20 06:42:38;;;;;;;10.65;3.03;;;;;;;34.49;59.62;100608.97;20913500;28;20053;-74
2023/08/20 06:53:01;;;;;;;11.57;3.03;;;;;;;34.62;59.64;100617.00;21006216;28;20669;-74
2023/08/20 07:03:24;;;;;;;7.65;2.63;;;;;;;34.74;58.36;100618.69;21003611;28;20057;-74
2023/08/20 07:13:47;;;;;;;5.50;2.43;;;;;;;34.95;57.99;100625.03;21003376;28;20485;-74
2023/08/20 07:24:11;;;;;;;9.65;2.85;;;;;;;35.31;57.03;100623.69;20973314;28;20048;-74
2023/08/20 07:34:34;;;;;;;7.45;2.45;;;;;;;35.48;56.56;100620.25;20997472;28;20048;-74
2023/08/20 07:44:58;;;;;;;11.63;2.53;;;;;;;35.55;54.75;100621.44;21002354;28;20439;-75
2023/08/20 07:55:20;;;;;;;5.40;2.70;;;;;;;35.75;52.76;100622.41;20942525;28;20051;-74
2023/08/20 08:05:48;;;;;;;8.05;2.22;;;;;;;36.00;51.38;100617.38;20993130;28;20094;-74
2023/08/20 08:16:10;;;;;;;7.53;2.70;;;;;;;36.37;50.05;100629.41;20962208;28;20040;-75
2023/08/20 08:26:35;;;;;;;8.63;2.47;;;;;;;36.41;49.13;100625.38;20960940;28;20045;-75
2023/08/20 08:36:58;;;;;;;7.65;2.78;;;;;;;36.51;49.76;100617.09;20955146;28;20668;-74
2023/08/20 08:47:23;;;;;;;11.02;2.85;;;;;;;36.74;48.76;100624.09;20991214;28;20496;-75
2023/08/20 08:57:25;;;;;;;11.40;2.90;;;;;;;36.96;48.03;100609.94;20972799;28;20056;-75
2023/08/20 09:07:56;;;;;;;8.77;2.72;;;;;;;37.23;47.23;100616.56;20956831;28;20126;-73
2023/08/20 09:18:19;;;;;;;9.43;2.88;;;;;;;37.11;47.34;100611.25;20945071;28;20397;-72
2023/08/20 09:28:47;;;;;;;9.32;2.90;;;;;;;37.45;46.37;100617.03;20909505;28;20144;-72
2023/08/20 09:39:10;;;;;;;11.07;2.90;;;;;;;37.31;45.98;100612.03;20886143;28;20098;-72
2023/08/20 09:49:38;;;;;;;11.70;2.60;;;;;;;37.61;45.76;100616.44;20909324;28;20099;-72
2023/08/20 09:59:42;;;;;;;7.95;2.92;;;;;;;37.80;44.78;100607.16;20925544;28;20051;-73
2023/08/20 10:10:09;;;;;;;10.02;2.95;;;;;;;38.11;44.19;100607.69;20898721;28;20052;-71
2023/08/20 10:20:16;;;;;;;10.25;2.92;;;;;;;38.11;44.55;100610.44;20900797;28;20083;-72
2023/08/20 10:30:25;;;;;;;6.13;2.67;;;;;;;37.97;43.69;100614.56;20898149;28;20051;-72
2023/08/20 10:40:48;;;;;;;8.93;2.50;;;;;;;38.08;42.01;100619.03;20899028;28;20049;-74
2023/08/20 10:50:52;;;;;;;8.32;2.70;;;;;;;37.85;41.77;100613.06;20891156;28;20501;-74
2023/08/20 11:01:16;;;;;;;11.80;2.80;;;;;;;37.42;41.70;100610.94;20874113;28;20049;-74
2023/08/20 11:11:41;;;;;;;11.73;3.30;;;;;;;37.07;41.83;100601.53;20869668;28;20294;-74
2023/08/20 11:22:03;;;;;;;;;;;;;;;37.02;42.35;100603.00;20912714;28;20061;-74
2023/08/20 11:32:27;;;;;;;11.07;3.63;;;;;;;36.92;42.36;100588.38;20965555;28;19921;-73
2023/08/20 11:42:50;;;;;;;10.57;3.83;;;;;;;37.17;42.66;100595.13;20945455;28;20040;-73
2023/08/20 11:53:14;;;;;;;14.40;4.05;;;;;;;37.15;43.71;100594.44;20991038;28;20106;-74
2023/08/20 12:03:38;;;;;;;;;;;;;;;37.21;44.08;100596.59;20961101;28;20377;-73
2023/08/20 12:14:04;;;;;;;9.85;3.53;;;;;;;37.49;43.89;100595.53;20949379;28;19927;-74
2023/08/20 12:24:26;;;;;;;10.77;3.80;;;;;;;37.56;44.06;100587.53;20974253;28;20048;-74
2023/08/20 12:34:50;;;;;;;8.05;3.55;;;;;;;37.05;43.50;100589.78;20962307;28;20054;-74
2023/08/20 12:45:13;;;;;;;9.95;3.90;;;;;;;36.74;44.36;100571.78;20949872;28;20496;-73
2023/08/20 12:55:37;;;;;;;14.20;4.13;;;;;;;36.36;45.76;100580.09;20945142;28;21503;-73
2023/08/20 13:06:01;;;;;;;9.30;3.80;;;;;;;36.29;46.58;100579.81;20944875;28;20077;-74
2023/08/20 13:16:26;;;;;;;13.60;4.55;;;;;;;36.32;47.06;100577.59;20965215;28;20044;-73
2023/08/20 13:26:49;;;;;;;10.07;3.93;;;;;;;35.89;48.76;100579.91;20944497;28;20370;-73
2023/08/20 13:37:13;;;;;;;13.93;4.63;;;;;;;35.65;48.56;100569.25;20948120;28;20147;-72
2023/08/20 13:47:36;;;;;;;10.98;4.00;;;;;;;35.24;47.77;100572.19;20957152;28;20053;-73
2023/08/20 13:58:00;;;;;;;10.68;4.40;;;;;;;34.79;49.25;100575.25;20937136;28;20078;-74
2023/08/20 14:08:22;;;;;;;11.10;3.60;;;;;;;34.62;50.47;100565.75;20945909;28;20052;-74
2023/08/20 14:18:47;;;;;;;10.65;3.92;;;;;;;34.70;51.49;100571.44;20941696;28;20078;-74
2023/08/20 14:29:09;;;;;;;9.30;4.15;;;;;;;34.66;54.71;100577.31;20905792;28;20171;-74
2023/08/20 14:39:33;;;;;;;16.52;5.20;;;;;;;34.81;58.82;100566.91;20898265;28;20394;-73
2023/08/20 14:49:56;;;;;;;14.52;5.72;;;;;;;34.34;65.00;100572.78;20928707;28;20056;-73
2023/08/20 15:00:22;;;;;;;14.63;4.60;;;;;;;33.94;70.32;100571.69;20878182;28;20075;-74
2023/08/20 15:10:57;;;;;;;16.55;5.50;;;;;;;33.44;76.09;100565.81;20873451;28;20493;-74
2023/08/20 15:21:20;;;;;;;18.45;6.43;;;;;;;33.21;78.89;100569.59;20885299;28;20505;-73
2023/08/20 15:31:43;;;;;;;14.13;5.82;;;;;;;32.90;80.29;100573.03;20965096;28;20060;-73
2023/08/20 15:42:07;;;;;;;14.57;5.78;;;;;;;32.46;84.06;100558.28;20958960;28;20428;-73
2023/08/20 15:52:30;;;;;;;14.30;5.93;;;;;;;32.15;86.89;100558.94;20959771;28;20041;-73
2023/08/20 16:02:54;;;;;;;16.23;5.88;;;;;;;31.96;90.17;100563.06;20955864;28;20045;-73
2023/08/20 16:13:16;;;;;;;15.45;5.82;;;;;;;31.72;93.34;100569.50;20955533;28;20052;-74
2023/08/20 16:23:41;;;;;;;19.15;6.15;;;;;;;31.43;97.60;100563.47;20973706;28;20076;-73
2023/08/20 16:34:03;;;;;;;12.15;5.47;;;;;;;31.23;98.80;100576.75;20948819;28;20070;-73
2023/08/20 16:44:28;;;;;;;14.68;5.90;;;;;;;31.00;100.00;100573.88;20945158;28;20063;-73
2023/08/20 16:54:51;;;;;;;18.00;6.50;;;;;;;30.77;100.00;100575.56;20954635;28;20048;-73
2023/08/20 17:05:15;;;;;;;14.18;6.90;;;;;;;30.39;100.00;100573.63;20975728;28;20052;-74
2023/08/20 17:15:38;;;;;;;17.90;7.28;;;;;;;30.33;100.00;100575.91;20943863;28;20515;-74
2023/08/20 17:26:02;;;;;;;17.40;7.50;;;;;;;30.19;100.00;100584.19;20948120;28;20071;-74
2023/08/20 17:36:24;;;;;;;14.73;7.68;;;;;;;29.93;100.00;100596.84;20945970;28;20049;-74
2023/08/20 17:46:51;;;;;;;18.08;7.55;;;;;;;29.78;100.00;100595.13;20963015;28;20040;-74
2023/08/20 17:57:14;;;;;;;16.40;6.57;;;;;;;29.62;100.00;100597.97;20965831;28;20518;-74
2023/08/20 18:07:39;;;;;;;13.48;7.05;;;;;;;29.48;100.00;100606.16;20996183;28;20048;-75
2023/08/20 18:18:02;;;;;;;20.20;7.32;;;;;;;29.38;100.00;100613.19;20967652;28;20040;-75
2023/08/20 18:28:26;;;;;;;18.70;7.22;;;;;;;29.24;100.00;100627.66;20967976;28;20059;-75
2023/08/20 18:38:48;;;;;;;29.60;12.60;;;;;;;29.11;100.00;100634.84;20982537;28;20097;-74
2023/08/20 18:49:12;;;;;;;22.20;10.32;;;;;;;28.99;100.00;100635.63;20978455;28;20048;-74
2023/08/20 18:59:34;;;;;;;18.65;8.10;;;;;;;28.77;100.00;100633.34;20978376;28;20048;-75
2023/08/20 19:09:59;;;;;;;18.52;8.20;;;;;;;28.67;100.00;100629.44;20970640;28;20055;-75
2023/08/20 19:20:21;;;;;;;17.23;8.02;;;;;;;28.53;100.00;100636.59;20962119;28;20052;-74
2023/08/20 19:30:47;;;;;;;18.48;7.72;;;;;;;28.39;100.00;100639.25;20825070;28;20050;-74
2023/08/20 19:41:09;;;;;;;18.05;7.35;;;;;;;28.36;100.00;100625.84;20822054;28;20084;-74
2023/08/20 19:51:33;;;;;;;16.67;7.47;;;;;;;28.25;100.00;100630.19;20820090;28;20057;-73
2023/08/20 20:01:56;;;;;;;17.30;8.10;;;;;;;28.13;100.00;100616.34;20798467;28;20258;-73
2023/08/20 20:12:20;;;;;;;17.30;8.05;;;;;;;28.01;100.00;100608.06;20816749;28;20083;-74
2023/08/20 20:22:44;;;;;;;13.70;8.40;;;;;;;27.47;100.00;100614.78;20847773;28;20129;-75
2023/08/20 20:33:08;;;;;;;15.80;8.40;;;;;;;26.93;100.00;100606.94;20963198;28;20114;-73
2023/08/20 20:43:31;;;;;;;20.83;9.27;;;;;;;27.12;100.00;100608.63;20955658;28;20570;-73
2023/08/20 20:53:56;;;;;;;13.30;8.10;;;;;;;27.10;100.00;100616.00;20953791;28;20040;-74
2023/08/20 21:04:18;;;;;;;13.20;7.70;;;;;;;27.02;100.00;100623.66;20937474;28;20040;-74
2023/08/20 21:14:43;;;;;;;12.30;7.80;;;;;;;26.69;100.00;100618.19;20992780;28;20401;-73
2023/08/20 21:25:06;;;;;;;16.85;7.88;;;;;;;26.55;100.00;100618.91;20964969;28;20787;-73
2023/08/20 21:35:30;;;;;;;14.85;8.38;;;;;;;26.51;100.00;100617.34;20965340;28;20083;-74
2023/08/20 21:45:52;;;;;;;18.08;8.63;;;;;;;26.47;100.00;100605.78;20947545;28;20056;-74
2023/08/20 21:56:17;;;;;;;14.85;8.00;;;;;;;26.36;100.00;100607.31;20970345;28;20511;-73
2023/08/20 22:06:40;;;;;;;15.25;8.63;;;;;;;26.23;100.00;100598.03;20956184;28;20052;-73
2023/08/20 22:17:03;;;;;;;17.15;8.38;;;;;;;26.01;100.00;100591.00;20958758;28;20144;-73
2023/08/20 22:27:26;;;;;;;15.05;8.25;;;;;;;25.51;100.00;100595.31;20961328;28;20044;-73
2023/08/20 22:38:14;;;;;;;18.58;7.75;;;;;;;25.64;100.00;100593.81;20960568;28;20045;-73
2023/08/20 22:48:36;;;;;;;14.82;7.90;;;;;;;25.54;100.00;100577.13;20964717;28;20098;-73
2023/08/20 22:59:00;;;;;;;14.52;8.27;;;;;;;25.61;100.00;100572.31;20950001;28;20055;-73
2023/08/20 23:09:22;;;;;;;11.07;7.53;;;;;;;25.47;100.00;100578.38;20958179;28;20048;-73
2023/08/20 23:19:47;;;;;;;15.25;8.50;;;;;;;25.27;100.00;100565.81;21001270;28;20115;-73
2023/08/20 23:30:10;;;;;;;11.52;8.82;;;;;;;25.38;100.00;100570.72;20955062;28;20048;-74
2023/08/20 23:40:34;;;;;;;15.98;8.82;;;;;;;25.24;100.00;100551.59;20966960;28;20044;-72
2023/08/20 23:50:57;;;;;;;16.50;8.85;;;;;;;25.23;100.00;100547.13;20967373;28;20382;-73
